logo
Rechercher aéroport 
image banner adimage banner adimage banner ad
image banner ad

LODA - Leoben Lkh

Situé à District Leoben, Austria

ICAO - , IATA -

Données fournies par Airmate  

Information générale

Coordonnées: N47°22'50" E15°5'5"
Élévation : 1910 feet MSL.
 
Voir autres Aéroports à Styria

Données opérationnelles

Special qualification required
Heure actuelle UTC:
Heure actuelle locale:
Météo à : LOXZ - Zeltweg ( 32 km )
METAR: LOXZ 240750Z VRB03KT 9999 FEW030 16/09 Q1019 NOSIG
TAF: TAF LOXZ 240515Z 2406/2415 VRB03KT 9999 FEW025 SCT050 TEMPO 2410/2415 8000 SHRA FEW030TCU BKN040 PROB40 TEMPO 2411/2415 VRB015KT 2500 TSRA BKN025CB
Voir NOTAMs / SUP AIP / TFR affectant cet aéroport [VIEW]
Fréquences de communication: [VIEW]

Pistes:

Coordonnées de l'aéroport

Adresse: District Leoben Austria

Vue satellite de LODA